Time;durP1;ratioP1;P1;durP2;ratioP2;P2;SDS_P1;SDS_P2;PMS_P1;PMS_P2;Temp;Humidity;BMP_temperature;BMP_pressure;BME280_temperature;BME280_humidity;BME280_pressure;Samples;Min_cycle;Max_cycle;Signal;HPM_P1;HPM_P2
2023/12/03 00:00:07;;;;;;;10.55;7.50;;;0.30;83.20;;;;;;5006010;28;20474;-67
2023/12/03 00:02:33;;;;;;;10.50;6.97;;;0.30;83.00;;;;;;5008217;28;20026;-68
2023/12/03 00:04:59;;;;;;;9.90;7.00;;;0.20;83.00;;;;;;5009140;28;20128;-66
2023/12/03 00:07:27;;;;;;;9.15;6.70;;;0.20;83.20;;;;;;4992673;28;20793;-67
2023/12/03 00:09:53;;;;;;;10.18;6.88;;;0.20;83.10;;;;;;5008924;28;20159;-67
2023/12/03 00:12:18;;;;;;;10.07;6.55;;;0.10;83.00;;;;;;5006851;28;20117;-68
2023/12/03 00:14:44;;;;;;;9.55;6.28;;;0.10;82.80;;;;;;5006357;28;20525;-67
2023/12/03 00:17:09;;;;;;;10.25;7.13;;;0.10;83.00;;;;;;5006698;28;20434;-66
2023/12/03 00:19:35;;;;;;;9.15;6.40;;;0.10;83.00;;;;;;5006272;28;20069;-67
2023/12/03 00:22:00;;;;;;;8.05;5.80;;;0.10;83.00;;;;;;5007212;28;20038;-66
2023/12/03 00:24:26;;;;;;;9.43;6.25;;;0.10;83.00;;;;;;5006915;28;20120;-67
2023/12/03 00:26:52;;;;;;;9.40;6.53;;;0.00;82.90;;;;;;5006771;28;20401;-67
2023/12/03 00:29:17;;;;;;;9.48;6.82;;;0.10;82.90;;;;;;5006873;28;20053;-68
2023/12/03 00:31:43;;;;;;;8.68;6.60;;;0.00;82.80;;;;;;5006862;28;20422;-67
2023/12/03 00:34:08;;;;;;;10.02;6.63;;;0.00;82.80;;;;;;5007180;28;20065;-67
2023/12/03 00:36:34;;;;;;;10.18;6.85;;;0.00;82.90;;;;;;5006723;28;20030;-66
2023/12/03 00:39:00;;;;;;;8.65;6.55;;;0.00;82.90;;;;;;5006569;28;20038;-66
2023/12/03 00:41:26;;;;;;;10.23;6.40;;;0.00;82.80;;;;;;5007348;28;20561;-67
2023/12/03 00:43:51;;;;;;;8.38;5.85;;;-0.10;82.80;;;;;;5007525;28;20120;-67
2023/12/03 00:46:21;;;;;;;8.20;5.93;;;-0.10;82.80;;;;;;4989267;28;20080;-68
2023/12/03 00:48:46;;;;;;;10.23;6.90;;;-0.10;82.70;;;;;;5005933;28;20099;-67
2023/12/03 00:51:13;;;;;;;9.75;6.68;;;0.00;82.80;;;;;;5006418;28;20030;-68
2023/12/03 00:53:39;;;;;;;9.90;6.93;;;-0.10;82.80;;;;;;5006576;28;20034;-67
2023/12/03 00:56:05;;;;;;;9.93;6.90;;;-0.10;82.80;;;;;;5006632;28;20517;-68
2023/12/03 00:58:31;;;;;;;9.43;5.95;;;0.00;82.70;;;;;;5005727;28;20053;-67
2023/12/03 01:00:57;;;;;;;7.82;5.55;;;-0.10;82.50;;;;;;5006582;28;20505;-68
2023/12/03 01:03:22;;;;;;;8.23;5.80;;;-0.10;82.40;;;;;;5006894;28;20453;-67
2023/12/03 01:05:48;;;;;;;7.50;5.60;;;-0.10;82.30;;;;;;5006587;28;20042;-68
2023/12/03 01:08:14;;;;;;;9.13;6.30;;;-0.10;82.50;;;;;;4994342;28;20422;-67
2023/12/03 01:10:39;;;;;;;9.75;6.47;;;-0.10;82.50;;;;;;4984890;28;20042;-67
2023/12/03 01:13:05;;;;;;;8.82;6.20;;;-0.10;82.40;;;;;;5005864;28;20034;-68
2023/12/03 01:15:31;;;;;;;7.53;5.50;;;-0.10;82.20;;;;;;5005782;28;20034;-68
2023/12/03 01:17:56;;;;;;;8.52;6.15;;;-0.10;82.10;;;;;;5005652;28;20267;-68
2023/12/03 01:20:22;;;;;;;7.00;5.28;;;-0.10;82.10;;;;;;5004648;28;20406;-68
2023/12/03 01:22:48;;;;;;;7.85;5.88;;;-0.10;82.20;;;;;;5005611;28;20643;-68
2023/12/03 01:25:13;;;;;;;8.93;5.80;;;-0.20;82.10;;;;;;5007499;28;20038;-68
2023/12/03 01:27:39;;;;;;;7.90;5.80;;;-0.20;82.10;;;;;;5006200;28;20041;-67
2023/12/03 01:30:05;;;;;;;9.32;6.10;;;-0.20;82.00;;;;;;5006101;28;20026;-67
2023/12/03 01:32:30;;;;;;;8.43;6.07;;;-0.20;81.60;;;;;;5005430;28;20062;-67
2023/12/03 01:34:56;;;;;;;8.60;5.85;;;-0.20;81.60;;;;;;5004813;28;20062;-67
2023/12/03 01:37:22;;;;;;;8.02;5.90;;;-0.20;81.80;;;;;;5006600;28;20531;-68
2023/12/03 01:39:47;;;;;;;8.32;5.80;;;-0.20;81.90;;;;;;5006273;28;20057;-67
2023/12/03 01:42:13;;;;;;;7.38;5.40;;;-0.20;82.80;;;;;;5006436;28;20058;-67
2023/12/03 01:44:39;;;;;;;9.98;6.38;;;-0.20;82.00;;;;;;5005509;28;20244;-67
2023/12/03 01:47:05;;;;;;;8.40;5.70;;;-0.20;82.20;;;;;;5006315;28;20129;-68
2023/12/03 01:49:31;;;;;;;7.85;5.68;;;-0.20;82.30;;;;;;4988481;28;20030;-66
2023/12/03 01:51:57;;;;;;;7.60;5.78;;;-0.20;82.10;;;;;;4994625;28;20701;-67
2023/12/03 01:54:35;;;;;;;8.32;5.78;;;-0.20;82.10;;;;;;5006404;28;20053;-68
2023/12/03 01:57:01;;;;;;;8.93;6.40;;;-0.20;82.10;;;;;;5006176;28;20041;-68
2023/12/03 01:59:27;;;;;;;9.50;6.57;;;-0.10;82.40;;;;;;5005678;28;20095;-67
2023/12/03 02:01:53;;;;;;;8.20;5.70;;;-0.10;82.00;;;;;;5005068;28;20060;-67
2023/12/03 02:04:18;;;;;;;10.50;6.80;;;-0.20;81.70;;;;;;5007152;28;20358;-67
2023/12/03 02:06:44;;;;;;;10.75;6.90;;;-0.20;81.90;;;;;;5006683;28;20754;-67
2023/12/03 02:09:10;;;;;;;10.45;6.82;;;-0.20;82.10;;;;;;5006316;28;20053;-67
2023/12/03 02:11:35;;;;;;;11.57;7.47;;;-0.20;82.10;;;;;;4984804;28;20129;-67
2023/12/03 02:14:03;;;;;;;10.52;6.88;;;-0.20;82.00;;;;;;5006804;28;20042;-67
2023/12/03 02:16:32;;;;;;;10.35;6.53;;;-0.20;82.00;;;;;;5005914;28;20029;-68
2023/12/03 02:18:58;;;;;;;9.80;6.80;;;-0.20;82.10;;;;;;5005900;28;20046;-67
2023/12/03 02:21:23;;;;;;;9.43;6.43;;;-0.20;82.30;;;;;;5005522;28;20037;-67
2023/12/03 02:23:49;;;;;;;9.65;6.72;;;-0.20;82.40;;;;;;5001157;28;20038;-67
2023/12/03 02:26:15;;;;;;;9.98;6.68;;;-0.20;82.50;;;;;;5001759;28;20038;-67
2023/12/03 02:28:40;;;;;;;10.63;6.68;;;-0.20;82.20;;;;;;5000622;28;20038;-67
2023/12/03 02:31:06;;;;;;;9.85;6.50;;;-0.10;82.10;;;;;;5002256;28;20383;-67
2023/12/03 02:33:32;;;;;;;10.73;7.45;;;-0.10;82.10;;;;;;5005251;28;20044;-67
2023/12/03 02:35:59;;;;;;;10.95;7.53;;;-0.10;82.20;;;;;;5005300;28;20057;-67
2023/12/03 02:38:25;;;;;;;11.13;7.30;;;-0.10;82.20;;;;;;5002917;28;20502;-66
2023/12/03 02:40:50;;;;;;;10.10;6.97;;;-0.10;82.30;;;;;;5004416;28;20168;-67
2023/12/03 02:43:16;;;;;;;10.77;6.80;;;-0.10;82.10;;;;;;5005100;28;20498;-67
2023/12/03 02:45:41;;;;;;;10.65;6.90;;;-0.10;82.10;;;;;;5004662;28;20116;-66
2023/12/03 02:48:07;;;;;;;9.07;6.60;;;0.00;82.20;;;;;;5003313;28;20045;-67
2023/12/03 02:50:33;;;;;;;9.93;7.03;;;0.00;82.20;;;;;;5004567;28;20083;-66
2023/12/03 02:52:58;;;;;;;11.90;6.97;;;0.00;82.30;;;;;;5005243;28;20096;-66
2023/12/03 02:55:24;;;;;;;9.95;6.60;;;0.00;82.30;;;;;;5005196;28;20514;-67
2023/12/03 02:57:49;;;;;;;9.48;6.80;;;0.00;82.30;;;;;;5004585;28;20188;-66
2023/12/03 03:00:15;;;;;;;9.82;6.63;;;0.10;82.10;;;;;;5005410;28;20026;-66
2023/12/03 03:02:41;;;;;;;10.75;7.13;;;0.10;82.10;;;;;;5004240;28;20038;-66
2023/12/03 03:05:07;;;;;;;10.18;7.10;;;0.10;82.10;;;;;;5004600;28;20034;-66
2023/12/03 03:07:32;;;;;;;10.95;7.15;;;0.10;81.80;;;;;;5005058;28;20121;-66
2023/12/03 03:09:58;;;;;;;9.30;6.75;;;0.10;81.80;;;;;;5004726;28;20029;-66
2023/12/03 03:12:23;;;;;;;10.57;6.85;;;0.10;81.80;;;;;;5003800;28;20112;-68
2023/12/03 03:14:49;;;;;;;8.90;6.47;;;0.10;81.80;;;;;;5005423;28;20033;-66
2023/12/03 03:17:15;;;;;;;8.88;6.22;;;0.10;81.80;;;;;;5004319;28;20068;-66
2023/12/03 03:19:43;;;;;;;9.25;6.40;;;0.10;81.50;;;;;;5004005;28;20068;-67
2023/12/03 03:22:12;;;;;;;9.65;6.70;;;0.10;81.80;;;;;;5004861;28;20464;-66
2023/12/03 03:24:39;;;;;;;11.38;6.65;;;0.10;80.90;;;;;;5002859;28;20148;-67
2023/12/03 03:27:05;;;;;;;9.52;6.55;;;0.00;80.80;;;;;;5004919;28;20054;-66
2023/12/03 03:29:31;;;;;;;10.23;7.18;;;0.00;80.40;;;;;;5002865;28;20042;-67
2023/12/03 03:31:57;;;;;;;8.65;6.55;;;-0.10;80.10;;;;;;5002702;28;20088;-67
2023/12/03 03:34:22;;;;;;;8.93;6.43;;;-0.20;80.00;;;;;;5002858;28;20034;-67
2023/12/03 03:36:48;;;;;;;10.73;6.80;;;-0.20;79.90;;;;;;5002761;28;20030;-66
2023/12/03 03:39:13;;;;;;;10.30;7.28;;;-0.30;80.20;;;;;;5000871;28;20034;-66
2023/12/03 03:41:39;;;;;;;10.70;7.05;;;-0.40;80.30;;;;;;5002278;28;20045;-66
2023/12/03 03:44:04;;;;;;;9.85;7.22;;;-0.40;80.20;;;;;;5001903;28;20034;-66
2023/12/03 03:46:30;;;;;;;10.57;6.70;;;-0.50;80.20;;;;;;5003353;28;20565;-66
2023/12/03 03:48:55;;;;;;;11.55;6.50;;;-0.50;80.20;;;;;;4998406;28;20030;-66
2023/12/03 03:51:21;;;;;;;9.70;6.55;;;-0.50;79.90;;;;;;5002667;28;20433;-67
2023/12/03 03:53:46;;;;;;;10.15;6.40;;;-0.60;79.50;;;;;;4988334;28;20034;-66
2023/12/03 03:56:14;;;;;;;8.98;6.55;;;-0.70;79.30;;;;;;5008616;28;20037;-67
2023/12/03 03:58:40;;;;;;;10.60;7.00;;;-0.80;79.50;;;;;;5006899;28;20096;-67
2023/12/03 04:01:09;;;;;;;9.57;6.60;;;-0.90;79.60;;;;;;5007828;28;20038;-67
2023/12/03 04:03:35;;;;;;;10.50;7.00;;;-0.90;80.00;;;;;;5008188;28;20054;-65
2023/12/03 04:06:04;;;;;;;10.45;6.65;;;-1.00;80.40;;;;;;5008288;28;20529;-66
2023/12/03 04:08:30;;;;;;;10.68;6.82;;;-1.00;80.20;;;;;;5006142;28;20052;-67
2023/12/03 04:10:56;;;;;;;11.25;6.85;;;-1.10;79.90;;;;;;5006843;28;20622;-67
2023/12/03 04:13:21;;;;;;;10.05;6.72;;;-1.10;79.70;;;;;;5007377;28;20068;-67
2023/12/03 04:15:47;;;;;;;9.50;6.88;;;-1.10;79.50;;;;;;5007914;28;20510;-68
2023/12/03 04:18:13;;;;;;;9.65;6.57;;;-1.20;79.30;;;;;;5007902;28;20068;-67
2023/12/03 04:20:38;;;;;;;9.05;6.28;;;-1.20;79.20;;;;;;5007238;28;20391;-67
2023/12/03 04:23:04;;;;;;;11.38;6.93;;;-1.30;79.00;;;;;;5008055;28;20033;-67
2023/12/03 04:25:30;;;;;;;11.93;7.50;;;-1.40;78.90;;;;;;5006940;28;20587;-66
2023/12/03 04:27:56;;;;;;;10.27;6.90;;;-1.50;78.90;;;;;;5007702;28;20370;-67
2023/12/03 04:30:22;;;;;;;10.88;6.82;;;-1.60;79.00;;;;;;5006904;28;20049;-67
2023/12/03 04:32:47;;;;;;;10.68;6.90;;;-1.70;79.20;;;;;;5005773;28;20034;-67
2023/12/03 04:35:14;;;;;;;10.13;6.22;;;-1.80;79.20;;;;;;5006668;28;20413;-66
2023/12/03 04:37:40;;;;;;;9.80;6.53;;;-1.80;80.20;;;;;;5007297;28;20080;-66
2023/12/03 04:40:06;;;;;;;10.43;6.28;;;-1.90;79.50;;;;;;5008114;28;20064;-67
2023/12/03 04:42:31;;;;;;;9.43;6.50;;;-2.00;79.80;;;;;;5006991;28;20038;-67
2023/12/03 04:44:57;;;;;;;12.82;7.57;;;-2.00;80.10;;;;;;5007971;28;20030;-67
2023/12/03 04:47:22;;;;;;;14.32;8.23;;;-2.00;79.90;;;;;;4988604;28;20310;-66
2023/12/03 04:49:48;;;;;;;16.85;9.02;;;-2.00;79.70;;;;;;5005960;28;20037;-67
2023/12/03 04:52:14;;;;;;;12.13;7.55;;;-2.00;79.30;;;;;;5006627;28;20481;-66
2023/12/03 04:54:39;;;;;;;11.25;6.93;;;-2.10;78.90;;;;;;5006453;28;20041;-67
2023/12/03 04:57:05;;;;;;;10.35;6.43;;;-2.10;78.90;;;;;;5007369;28;20049;-67
2023/12/03 04:59:30;;;;;;;10.95;6.80;;;-2.20;79.10;;;;;;5006435;28;20108;-67
2023/12/03 05:01:56;;;;;;;11.18;6.90;;;-2.20;79.30;;;;;;5005401;28;20034;-67
2023/12/03 05:04:23;;;;;;;15.57;8.30;;;-2.20;79.50;;;;;;4999887;28;20121;-67
2023/12/03 05:06:49;;;;;;;14.35;8.70;;;-2.20;79.50;;;;;;4990326;28;20425;-66
2023/12/03 05:09:15;;;;;;;15.40;8.20;;;-2.30;79.00;;;;;;5003384;28;20040;-66
2023/12/03 05:11:41;;;;;;;15.18;7.95;;;-2.30;78.70;;;;;;5000256;28;20041;-67
2023/12/03 05:14:08;;;;;;;12.57;7.70;;;-2.40;78.40;;;;;;4997916;28;20056;-67
2023/12/03 05:16:34;;;;;;;12.23;7.10;;;-2.40;78.30;;;;;;5001998;28;20030;-66
2023/12/03 05:18:59;;;;;;;10.20;6.53;;;-2.50;78.30;;;;;;5006342;28;20065;-66
2023/12/03 05:21:25;;;;;;;10.15;6.43;;;-2.60;78.10;;;;;;5006218;28;20113;-67
2023/12/03 05:23:50;;;;;;;10.60;6.07;;;-2.60;78.30;;;;;;5006863;28;20042;-67
2023/12/03 05:26:16;;;;;;;10.50;6.47;;;-2.70;78.10;;;;;;5006650;28;20041;-66
2023/12/03 05:28:42;;;;;;;8.77;6.13;;;-2.70;78.00;;;;;;5005353;28;20057;-67
2023/12/03 05:31:07;;;;;;;9.98;6.45;;;-2.80;77.90;;;;;;4988747;28;20319;-66
2023/12/03 05:33:33;;;;;;;9.45;6.25;;;-2.90;77.90;;;;;;5005783;28;20041;-66
2023/12/03 05:35:59;;;;;;;11.23;6.95;;;-3.00;78.00;;;;;;5005501;28;20042;-66
2023/12/03 05:38:24;;;;;;;12.90;7.60;;;-3.10;78.00;;;;;;5006076;28;20030;-65
2023/12/03 05:40:50;;;;;;;13.25;7.05;;;-3.20;78.10;;;;;;5005880;28;20504;-66
2023/12/03 05:43:16;;;;;;;11.90;6.85;;;-3.30;78.00;;;;;;5007552;28;20032;-66
2023/12/03 05:45:41;;;;;;;10.02;6.13;;;-3.30;78.30;;;;;;5006020;28;20115;-67
2023/12/03 05:48:07;;;;;;;10.32;6.55;;;-3.40;78.40;;;;;;5005805;28;20123;-66
2023/12/03 05:50:33;;;;;;;11.02;6.22;;;-3.50;78.50;;;;;;5005243;28;20045;-66
2023/12/03 05:52:59;;;;;;;11.55;6.47;;;-3.60;78.50;;;;;;5006115;28;20565;-66
2023/12/03 05:55:24;;;;;;;9.10;5.72;;;-3.60;78.60;;;;;;5004896;28;20052;-65
2023/12/03 05:57:50;;;;;;;9.82;6.03;;;-3.70;78.80;;;;;;5005843;28;20038;-66
2023/12/03 06:00:16;;;;;;;9.88;5.88;;;-3.80;78.80;;;;;;5005439;28;20038;-66
2023/12/03 06:02:42;;;;;;;10.68;6.97;;;-3.80;79.00;;;;;;5004701;28;20509;-66
2023/12/03 06:05:08;;;;;;;9.95;6.13;;;-3.90;79.00;;;;;;5006209;28;20522;-67
2023/12/03 06:07:34;;;;;;;10.02;6.40;;;-3.90;79.00;;;;;;5005157;28;20089;-67
2023/12/03 06:10:00;;;;;;;9.68;6.20;;;-3.90;79.30;;;;;;5005793;28;20072;-66
2023/12/03 06:12:25;;;;;;;11.02;6.85;;;-4.00;79.50;;;;;;5003617;28;20190;-65
2023/12/03 06:14:51;;;;;;;11.45;7.38;;;-4.00;79.40;;;;;;5005739;28;20592;-66
2023/12/03 06:17:17;;;;;;;11.63;6.85;;;-4.00;79.00;;;;;;5004653;28;20032;-66
2023/12/03 06:19:44;;;;;;;11.95;7.10;;;-4.00;78.50;;;;;;5005374;28;20045;-66
2023/12/03 06:22:09;;;;;;;10.98;6.43;;;-4.10;78.60;;;;;;5005509;28;20030;-66
2023/12/03 06:24:35;;;;;;;10.52;6.45;;;-4.10;78.80;;;;;;5004018;28;20038;-66
2023/12/03 06:27:01;;;;;;;9.52;6.13;;;-4.20;79.20;;;;;;5005427;28;20564;-66
2023/12/03 06:29:26;;;;;;;11.93;6.95;;;-4.20;79.50;;;;;;5005169;28;20037;-66
2023/12/03 06:31:52;;;;;;;11.20;6.82;;;-4.20;79.70;;;;;;5004660;28;20092;-66
2023/12/03 06:34:18;;;;;;;10.95;7.10;;;-4.10;80.00;;;;;;5005928;28;20041;-66
2023/12/03 06:36:43;;;;;;;14.05;8.13;;;-4.10;80.20;;;;;;5005112;28;20046;-67
2023/12/03 06:39:09;;;;;;;11.80;7.50;;;-4.10;80.00;;;;;;5006082;28;20042;-66
2023/12/03 06:41:34;;;;;;;12.60;7.15;;;-4.00;80.20;;;;;;5006016;28;20034;-66
2023/12/03 06:44:00;;;;;;;11.20;7.03;;;-4.00;80.20;;;;;;5005837;28;20046;-67
2023/12/03 06:46:26;;;;;;;13.75;7.70;;;-4.00;80.10;;;;;;4993975;28;20494;-65
2023/12/03 06:48:51;;;;;;;17.10;7.80;;;-4.00;80.00;;;;;;5004005;28;20897;-66
2023/12/03 06:51:17;;;;;;;13.52;7.40;;;-4.00;79.80;;;;;;5005087;28;20081;-66
2023/12/03 06:53:42;;;;;;;12.85;7.32;;;-3.90;79.80;;;;;;5004861;28;20077;-66
2023/12/03 06:56:10;;;;;;;12.48;7.50;;;-3.90;79.40;;;;;;5004728;28;20066;-65
2023/12/03 06:58:36;;;;;;;13.02;7.78;;;-3.90;79.20;;;;;;5003716;28;20041;-67
2023/12/03 07:01:01;;;;;;;13.50;8.30;;;-3.90;79.30;;;;;;5004665;28;20034;-66
2023/12/03 07:03:27;;;;;;;11.50;7.50;;;-3.90;79.30;;;;;;5004978;28;20038;-67
2023/12/03 07:05:54;;;;;;;13.50;7.95;;;-3.90;79.20;;;;;;4988392;28;20077;-67
2023/12/03 07:08:20;;;;;;;13.98;8.50;;;-3.90;78.70;;;;;;5005491;28;20418;-67
2023/12/03 07:10:45;;;;;;;12.35;7.97;;;-3.90;78.40;;;;;;5004290;28;20633;-68
2023/12/03 07:13:11;;;;;;;13.80;8.45;;;-4.00;79.30;;;;;;5006481;28;20029;-67
2023/12/03 07:15:36;;;;;;;12.45;8.10;;;-4.00;78.70;;;;;;5005548;28;20064;-66
2023/12/03 07:18:03;;;;;;;12.20;7.32;;;-4.00;79.00;;;;;;5003281;28;20042;-67
2023/12/03 07:20:28;;;;;;;12.68;7.70;;;-4.00;79.00;;;;;;5004264;28;20034;-67
2023/12/03 07:22:55;;;;;;;12.35;7.95;;;-4.00;78.80;;;;;;4999577;28;20037;-67
2023/12/03 07:25:21;;;;;;;12.60;7.45;;;-4.10;78.40;;;;;;5005196;28;20058;-66
2023/12/03 07:27:47;;;;;;;11.75;7.45;;;-4.10;78.40;;;;;;4994568;28;20509;-67
2023/12/03 07:30:13;;;;;;;17.60;10.23;;;-4.20;78.30;;;;;;4997218;28;20050;-67
2023/12/03 07:32:38;;;;;;;26.10;15.05;;;-4.20;79.30;;;;;;4990238;28;20030;-66
2023/12/03 07:35:04;;;;;;;30.67;14.82;;;-4.20;78.60;;;;;;4991705;28;20330;-66
2023/12/03 07:37:30;;;;;;;18.77;10.30;;;-4.20;78.50;;;;;;4999863;28;20505;-67
2023/12/03 07:39:55;;;;;;;18.83;11.38;;;-4.30;78.00;;;;;;4999656;28;20100;-67
2023/12/03 07:42:21;;;;;;;34.95;18.45;;;-4.30;78.20;;;;;;4998622;28;20029;-67
2023/12/03 07:44:47;;;;;;;42.50;19.65;;;-4.40;78.50;;;;;;5001897;28;20030;-66
2023/12/03 07:47:13;;;;;;;34.67;18.88;;;-4.40;78.50;;;;;;4985527;28;20038;-67
2023/12/03 07:49:38;;;;;;;32.67;18.13;;;-4.40;78.40;;;;;;4984714;28;20505;-67
2023/12/03 07:52:04;;;;;;;30.15;16.90;;;-4.40;78.70;;;;;;4997703;28;20045;-67
2023/12/03 07:54:30;;;;;;;32.05;16.63;;;-4.40;79.00;;;;;;4997872;28;20391;-67
2023/12/03 07:56:56;;;;;;;32.58;17.77;;;-4.40;78.70;;;;;;4995737;28;20093;-68
2023/12/03 07:59:22;;;;;;;58.13;24.20;;;-4.50;78.60;;;;;;4994341;28;20525;-68
2023/12/03 08:01:48;;;;;;;57.88;23.90;;;-4.50;78.90;;;;;;4997357;28;20049;-67
2023/12/03 08:04:13;;;;;;;66.95;26.88;;;-4.50;79.00;;;;;;5004695;28;20113;-68
2023/12/03 08:06:39;;;;;;;49.90;20.75;;;-4.40;79.00;;;;;;5003920;28;20034;-69
2023/12/03 08:09:05;;;;;;;37.00;16.92;;;-4.40;78.80;;;;;;4979335;28;20033;-70
2023/12/03 08:11:31;;;;;;;38.80;17.20;;;-4.40;79.00;;;;;;5002588;28;20048;-69
2023/12/03 08:13:56;;;;;;;43.75;18.40;;;-4.40;79.40;;;;;;5006438;28;20505;-69
2023/12/03 08:16:22;;;;;;;45.50;20.17;;;-4.40;79.70;;;;;;4999408;28;20038;-70
2023/12/03 08:18:48;;;;;;;50.13;21.67;;;-4.40;80.00;;;;;;4998960;28;20038;-69
2023/12/03 08:21:14;;;;;;;39.08;20.90;;;-4.30;80.10;;;;;;4997742;28;20034;-70
2023/12/03 08:23:40;;;;;;;43.78;25.00;;;-4.30;80.10;;;;;;5005767;28;20113;-68
2023/12/03 08:26:06;;;;;;;33.63;17.50;;;-4.20;80.20;;;;;;4987694;28;20138;-70
2023/12/03 08:28:32;;;;;;;31.63;17.75;;;-4.10;80.00;;;;;;5005198;28;20116;-69
2023/12/03 08:30:58;;;;;;;27.88;15.10;;;-4.10;79.60;;;;;;5003369;28;20136;-69
2023/12/03 08:33:24;;;;;;;24.10;13.43;;;-4.10;79.30;;;;;;5005252;28;20029;-69
2023/12/03 08:35:50;;;;;;;23.23;13.45;;;-4.10;79.30;;;;;;5006101;28;20452;-69
2023/12/03 08:38:15;;;;;;;23.70;13.20;;;-4.10;79.30;;;;;;5003131;28;20129;-68
2023/12/03 08:40:41;;;;;;;21.70;12.38;;;-4.10;79.60;;;;;;5004766;28;20034;-68
2023/12/03 08:43:07;;;;;;;25.45;12.80;;;-4.20;80.00;;;;;;5002041;28;20034;-67
2023/12/03 08:45:33;;;;;;;24.23;12.70;;;-4.20;80.30;;;;;;5002722;28;20510;-68
2023/12/03 08:48:02;;;;;;;20.83;12.40;;;-4.10;80.60;;;;;;5005506;28;20038;-69
2023/12/03 08:50:29;;;;;;;25.95;14.80;;;-4.10;81.00;;;;;;5005234;28;20034;-70
2023/12/03 08:52:55;;;;;;;30.58;16.80;;;-4.10;81.40;;;;;;5006102;28;20393;-69
2023/12/03 08:55:21;;;;;;;42.50;24.17;;;-4.00;81.80;;;;;;5004015;28;20041;-70
2023/12/03 08:57:47;;;;;;;48.88;26.00;;;-4.00;81.90;;;;;;4997105;28;20253;-70
2023/12/03 09:00:15;;;;;;;57.00;30.10;;;-3.90;81.90;;;;;;5002833;28;20459;-69
2023/12/03 09:02:43;;;;;;;31.77;18.02;;;-3.80;81.70;;;;;;5003771;28;20112;-69
2023/12/03 09:05:09;;;;;;;28.67;15.77;;;-3.80;81.60;;;;;;5004637;28;20033;-70
2023/12/03 09:07:35;;;;;;;40.40;19.48;;;-3.70;81.60;;;;;;5002413;28;20269;-70
2023/12/03 09:10:01;;;;;;;35.92;19.73;;;-3.70;81.80;;;;;;5000828;28;20176;-69
2023/12/03 09:12:26;;;;;;;36.45;17.33;;;-3.60;82.00;;;;;;4982842;28;20043;-69
2023/12/03 09:14:52;;;;;;;29.13;13.60;;;-3.60;82.20;;;;;;4997685;28;20545;-67
2023/12/03 09:17:17;;;;;;;20.10;11.40;;;-3.50;82.30;;;;;;4999105;28;20042;-69
2023/12/03 09:19:43;;;;;;;18.98;10.30;;;-3.40;82.30;;;;;;5002824;28;20513;-69
2023/12/03 09:22:09;;;;;;;23.38;10.95;;;-3.40;82.00;;;;;;5001633;28;20159;-69
2023/12/03 09:24:34;;;;;;;18.02;10.57;;;-3.40;81.80;;;;;;4998447;28;20037;-69
2023/12/03 09:27:00;;;;;;;18.42;11.07;;;-3.40;81.60;;;;;;5004909;28;20042;-69
2023/12/03 09:29:25;;;;;;;20.58;11.05;;;-3.40;81.70;;;;;;4987052;28;20042;-70
2023/12/03 09:31:51;;;;;;;20.52;10.65;;;-3.50;81.80;;;;;;5003762;28;20033;-69
2023/12/03 09:34:16;;;;;;;18.95;9.82;;;-3.50;81.80;;;;;;4990167;28;20057;-70
2023/12/03 09:36:42;;;;;;;17.95;11.23;;;-3.40;82.00;;;;;;5006789;28;20046;-69
2023/12/03 09:39:08;;;;;;;17.92;10.15;;;-3.40;82.00;;;;;;5007295;28;20111;-70
2023/12/03 09:42:03;;;;;;;20.23;9.75;;;-3.50;82.10;;;;;;5006628;28;20030;-70
2023/12/03 09:44:46;;;;;;;17.30;9.95;;;-3.40;82.40;;;;;;5001690;28;20045;-69
2023/12/03 09:47:14;;;;;;;18.23;9.70;;;-3.40;82.30;;;;;;5008386;28;20062;-69
2023/12/03 09:49:45;;;;;;;19.65;10.40;;;-3.40;82.30;;;;;;5006821;28;20429;-69
2023/12/03 09:52:11;;;;;;;21.42;11.57;;;-3.40;82.30;;;;;;4988801;28;20620;-69
2023/12/03 09:54:37;;;;;;;21.80;11.73;;;-3.40;82.50;;;;;;5006328;28;20026;-69
2023/12/03 09:57:06;;;;;;;23.67;11.85;;;-3.40;82.70;;;;;;5007720;28;20134;-69
2023/12/03 09:59:33;;;;;;;21.90;12.45;;;-3.40;82.80;;;;;;5005959;28;20037;-70
2023/12/03 10:02:00;;;;;;;22.52;11.52;;;-3.40;83.60;;;;;;5007552;28;20030;-69
2023/12/03 10:04:25;;;;;;;26.17;12.38;;;-3.40;82.90;;;;;;5006915;28;20540;-67
2023/12/03 10:06:55;;;;;;;24.63;11.50;;;-3.30;83.00;;;;;;5004934;28;20065;-69
2023/12/03 10:09:22;;;;;;;24.40;11.93;;;-3.30;83.00;;;;;;5006835;28;20038;-69
2023/12/03 10:11:55;;;;;;;23.27;12.02;;;-3.30;83.20;;;;;;5004434;28;20056;-70
2023/12/03 10:14:21;;;;;;;23.80;12.43;;;-3.30;83.30;;;;;;5006781;28;20057;-69
2023/12/03 10:16:50;;;;;;;24.55;12.40;;;-3.30;83.40;;;;;;5005715;28;20046;-69
2023/12/03 10:19:26;;;;;;;23.85;12.73;;;-3.30;83.20;;;;;;5006464;28;20046;-70
2023/12/03 10:21:53;;;;;;;26.23;12.02;;;-3.20;83.00;;;;;;5004096;28;20473;-69
2023/12/03 10:24:19;;;;;;;24.60;12.45;;;-3.30;83.00;;;;;;5002555;28;20771;-69
2023/12/03 10:26:53;;;;;;;22.30;12.55;;;-3.30;83.30;;;;;;5005811;28;20072;-69
2023/12/03 10:29:26;;;;;;;24.13;12.33;;;-3.30;83.40;;;;;;5006690;28;20037;-69
2023/12/03 10:31:53;;;;;;;26.05;12.60;;;-3.30;83.50;;;;;;5006355;28;20820;-69
2023/12/03 10:34:20;;;;;;;26.05;13.15;;;-3.30;83.50;;;;;;5006845;28;20046;-69
2023/12/03 10:36:47;;;;;;;26.30;13.10;;;-3.40;83.40;;;;;;5005913;28;20042;-69
2023/12/03 10:39:17;;;;;;;24.67;13.57;;;-3.40;83.20;;;;;;5005348;28;20041;-69
2023/12/03 10:41:46;;;;;;;26.42;13.70;;;-3.40;83.30;;;;;;5006803;28;20560;-69
2023/12/03 10:44:16;;;;;;;27.38;13.60;;;-3.40;83.20;;;;;;5006683;28;20033;-69
2023/12/03 10:46:42;;;;;;;26.75;13.38;;;-3.40;83.20;;;;;;5005718;28;20033;-69
2023/12/03 10:49:10;;;;;;;25.17;13.45;;;-3.40;83.20;;;;;;5005764;28;20038;-69
2023/12/03 10:51:37;;;;;;;28.30;14.45;;;-3.40;83.10;;;;;;5003978;28;20038;-69
2023/12/03 10:54:02;;;;;;;23.98;13.18;;;-3.50;83.20;;;;;;5005137;28;20038;-69
2023/12/03 10:56:28;;;;;;;26.00;13.77;;;-3.50;83.30;;;;;;5005621;28;20036;-70
2023/12/03 10:59:01;;;;;;;26.23;13.63;;;-3.60;83.30;;;;;;5005040;28;20061;-69
2023/12/03 11:01:29;;;;;;;25.58;13.38;;;-3.60;83.70;;;;;;5005108;28;20033;-69
2023/12/03 11:04:02;;;;;;;24.27;12.10;;;-3.60;83.90;;;;;;5010136;28;20141;-69
2023/12/03 11:06:32;;;;;;;26.45;13.55;;;-3.60;84.10;;;;;;5008277;28;20045;-69
2023/12/03 11:08:58;;;;;;;26.08;12.70;;;-3.60;84.40;;;;;;5009525;28;20030;-69
2023/12/03 11:11:24;;;;;;;23.52;12.55;;;-3.60;84.90;;;;;;5009206;28;20046;-69
2023/12/03 11:13:52;;;;;;;23.95;12.27;;;-3.50;85.40;;;;;;5009364;28;20525;-69
2023/12/03 11:16:19;;;;;;;26.23;13.50;;;-3.40;85.60;;;;;;5010803;28;20394;-69
2023/12/03 11:19:10;;;;;;;29.40;15.57;;;-3.30;85.80;;;;;;5008747;28;20058;-69
2023/12/03 11:21:52;;;;;;;28.80;15.02;;;-3.20;86.00;;;;;;5008603;28;20030;-69
2023/12/03 11:24:35;;;;;;;23.65;13.35;;;-3.10;85.80;;;;;;5010107;28;20398;-69
2023/12/03 11:27:00;;;;;;;26.23;13.43;;;-3.00;85.60;;;;;;5010232;28;20088;-69
2023/12/03 11:29:56;;;;;;;24.40;13.38;;;-3.00;86.00;;;;;;5009758;28;20441;-69
2023/12/03 11:32:24;;;;;;;24.92;13.40;;;-2.90;85.00;;;;;;5010663;28;20049;-69
2023/12/03 11:34:56;;;;;;;26.70;13.68;;;-2.80;84.90;;;;;;4991986;28;20037;-69
2023/12/03 11:37:22;;;;;;;25.65;12.68;;;-2.80;84.60;;;;;;5010273;28;20092;-69
2023/12/03 11:39:48;;;;;;;22.63;13.27;;;-2.70;84.70;;;;;;5009383;28;20405;-69
2023/12/03 11:42:15;;;;;;;24.85;14.13;;;-2.60;85.10;;;;;;5010161;28;20038;-69
2023/12/03 11:44:42;;;;;;;25.48;13.98;;;-2.60;85.40;;;;;;4992022;28;20030;-69
2023/12/03 11:47:09;;;;;;;23.63;13.35;;;-2.50;85.50;;;;;;5009615;28;20038;-69
2023/12/03 11:49:40;;;;;;;23.42;13.48;;;-2.40;85.70;;;;;;5009558;28;20042;-69
2023/12/03 11:52:06;;;;;;;26.10;14.23;;;-2.30;85.30;;;;;;5010288;28;20065;-69
2023/12/03 11:54:54;;;;;;;25.95;13.68;;;-2.20;84.90;;;;;;5009261;28;20030;-69
2023/12/03 11:57:19;;;;;;;24.73;13.77;;;-2.10;84.50;;;;;;5009796;28;20046;-69
2023/12/03 11:59:45;;;;;;;24.67;13.48;;;-2.10;84.00;;;;;;5008576;28;20544;-70
2023/12/03 12:02:12;;;;;;;24.15;13.57;;;-2.10;83.70;;;;;;5009920;28;20034;-69
2023/12/03 12:04:38;;;;;;;25.63;13.35;;;-2.10;83.70;;;;;;5008686;28;20034;-69
2023/12/03 12:07:17;;;;;;;26.50;14.40;;;-2.10;83.70;;;;;;5009281;28;20042;-70
2023/12/03 12:09:44;;;;;;;26.45;14.50;;;-2.10;83.60;;;;;;5001587;28;20513;-69
2023/12/03 12:12:10;;;;;;;27.05;14.48;;;-2.10;83.50;;;;;;5008182;28;20037;-69
2023/12/03 12:14:36;;;;;;;28.60;14.90;;;-2.20;83.50;;;;;;5008182;28;20037;-70
2023/12/03 12:17:03;;;;;;;26.83;13.77;;;-2.20;83.70;;;;;;5009681;28;20034;-69
2023/12/03 12:19:28;;;;;;;28.88;14.60;;;-2.20;83.90;;;;;;5008998;28;20045;-69
2023/12/03 12:21:56;;;;;;;27.77;14.48;;;-2.20;84.00;;;;;;5009202;28;20026;-69
2023/12/03 12:24:22;;;;;;;27.20;14.43;;;-2.20;83.90;;;;;;5009022;28;20041;-69
2023/12/03 12:26:51;;;;;;;28.95;14.40;;;-2.20;83.90;;;;;;5008626;28;20034;-69
2023/12/03 12:29:18;;;;;;;26.42;13.95;;;-2.20;83.90;;;;;;5009426;28;20038;-69
2023/12/03 12:31:45;;;;;;;27.92;15.00;;;-2.20;84.20;;;;;;5009220;28;20034;-69